Humidity-temperature Sensor

Selected Measurement Type: Air Temperature

 
Air Temperature [°C]     6 entries per hour
Showing data from 2/4/2021 (00:00:00 Z) to 2/3/2021 (00:01:00 Z)
Previous Next [ Day | 3-Days | 7-Days ]
First Last
Prev [ Day | 3-Days | 7-Days ] Next
First Last

Start Time:     :
End Time:     :     
Time (in GMT) :00 :50 :40 :30 :20 :10
Previous Next [ Day | 3-Days | 7-Days ]
First Last
Prev [ Day | 3-Days | 7-Days ] Next
First Last


123 => good data
MM => data is determined as missing
-- => data not received/configured
Back to Top Back to Top
2/4/2021 00:00 to 23:10 26.63 26.67 26.72 26.73 26.70 26.78
2/3/2021 23:00 to 22:10 26.62 26.77 26.66 26.72 26.65 26.72
2/3/2021 22:00 to 21:10 26.63 26.82 26.61 26.58 26.66 26.81
2/3/2021 21:00 to 20:10 26.68 26.60 26.66 26.77 26.60 26.77
2/3/2021 20:00 to 19:10 26.60 26.67 26.81 26.80 26.52 26.44
2/3/2021 19:00 to 18:10 26.56 26.69 26.63 26.81 26.68 26.70
2/3/2021 18:00 to 17:10 26.85 26.86 26.81 27.04 27.12 27.14
2/3/2021 17:00 to 16:10 27.02 26.93 27.06 27.21 27.01 26.90
2/3/2021 16:00 to 15:10 27.19 27.34 27.28 27.31 27.32 27.22
2/3/2021 15:00 to 14:10 27.09 27.19 26.74 27.16 26.77 26.88
2/3/2021 14:00 to 13:10 26.77 26.65 26.66 26.58 26.55 26.43
2/3/2021 13:00 to 12:10 26.39 26.41 26.19 26.00 26.20 26.17
2/3/2021 12:00 to 11:10 26.20 26.17 26.22 26.31 26.27 26.13
2/3/2021 11:00 to 10:10 26.06 26.25 26.12 26.16 26.21 26.20
2/3/2021 10:00 to 9:10 26.18 26.29 26.30 26.13 26.29 26.25
2/3/2021 09:00 to 8:10 26.22 26.24 26.26 26.28 26.24 26.22
2/3/2021 08:00 to 7:10 26.36 26.38 26.36 26.26 26.32 26.34
2/3/2021 07:00 to 6:10 26.28 26.43 26.37 26.38 26.54 26.42
2/3/2021 06:00 to 5:10 26.33 26.43 26.49 26.41 26.54 26.43
2/3/2021 05:00 to 4:10 26.53 26.50 26.61 26.63 26.59 26.47
2/3/2021 04:00 to 3:10 26.62 26.66 26.61 26.65 26.57 26.63
2/3/2021 03:00 to 2:10 26.59 26.62 26.66 26.56 26.64 26.60
2/3/2021 02:00 to 1:10 26.56 26.46 26.48 26.55 26.37 26.40
2/3/2021 01:00 to 0:10 26.22 26.28 26.12 26.60 26.67 26.80